Time;durP1;ratioP1;P1;durP2;ratioP2;P2;SDS_P1;SDS_P2;PMS_P1;PMS_P2;Temp;Humidity;BMP_temperature;BMP_pressure;BME280_temperature;BME280_humidity;BME280_pressure;Samples;Min_cycle;Max_cycle;Signal;HPM_P1;HPM_P2
2022/12/08 00:01:15;;;;;;;6.1;4.6;;;;;;;;;;;;;
2022/12/08 00:03:50;;;;;;;5.9;4.6;;;;;;;;;;;;;
2022/12/08 00:11:28;;;;;;;7.5;5.2;;;;;;;;;;;;;
2022/12/08 00:13:58;;;;;;;7.3;5.1;;;;;;;;;;;;;
2022/12/08 00:16:27;;;;;;;7.5;4.9;;;;;;;;;;;;;
2022/12/08 00:18:57;;;;;;;7.2;5.4;;;;;;;;;;;;;
2022/12/08 00:21:26;;;;;;;7.7;5.5;;;;;;;;;;;;;
2022/12/08 00:23:55;;;;;;;6.8;5.5;;;;;;;;;;;;;
2022/12/08 00:26:24;;;;;;;6.8;5;;;;;;;;;;;;;
2022/12/08 00:28:50;;;;;;;6.2;5.2;;;;;;;;;;;;;
2022/12/08 00:31:15;;;;;;;6.8;5.1;;;;;;;;;;;;;
2022/12/08 00:33:41;;;;;;;6.2;5;;;;;;;;;;;;;
2022/12/08 00:36:12;;;;;;;5.8;4.3;;;;;;;;;;;;;
2022/12/08 00:38:39;;;;;;;5.6;4.8;;;;;;;;;;;;;
2022/12/08 00:41:04;;;;;;;6.5;5.1;;;;;;;;;;;;;
2022/12/08 00:43:31;;;;;;;5.9;4.8;;;;;;;;;;;;;
2022/12/08 00:45:56;;;;;;;6;4.9;;;;;;;;;;;;;
2022/12/08 00:48:22;;;;;;;6.7;5.2;;;;;;;;;;;;;
2022/12/08 00:50:47;;;;;;;7.9;5.9;;;;;;;;;;;;;
2022/12/08 00:53:13;;;;;;;6.6;5.3;;;;;;;;;;;;;
2022/12/08 00:55:38;;;;;;;6.3;5.1;;;;;;;;;;;;;
2022/12/08 00:58:04;;;;;;;6;4.9;;;;;;;;;;;;;
2022/12/08 01:00:30;;;;;;;6.3;5.1;;;;;;;;;;;;;
2022/12/08 01:02:55;;;;;;;6.1;4.6;;;;;;;;;;;;;
2022/12/08 01:05:20;;;;;;;7.2;5.4;;;;;;;;;;;;;
2022/12/08 01:07:48;;;;;;;5.1;4.6;;;;;;;;;;;;;
2022/12/08 01:10:12;;;;;;;7.8;5.1;;;;;;;;;;;;;
2022/12/08 01:12:37;;;;;;;6.1;4.5;;;;;;;;;;;;;
2022/12/08 01:15:02;;;;;;;6.4;4.9;;;;;;;;;;;;;
2022/12/08 01:17:30;;;;;;;5.7;4.4;;;;;;;;;;;;;
2022/12/08 01:19:55;;;;;;;5.7;4.6;;;;;;;;;;;;;
2022/12/08 01:22:20;;;;;;;5.6;4.9;;;;;;;;;;;;;
2022/12/08 01:24:46;;;;;;;7;4.9;;;;;;;;;;;;;
2022/12/08 01:27:13;;;;;;;5.6;4.9;;;;;;;;;;;;;
2022/12/08 01:29:38;;;;;;;6.7;4.9;;;;;;;;;;;;;
2022/12/08 01:32:04;;;;;;;6.2;4.8;;;;;;;;;;;;;
2022/12/08 01:34:29;;;;;;;7.5;5.1;;;;;;;;;;;;;
2022/12/08 01:36:55;;;;;;;5.8;4.9;;;;;;;;;;;;;
2022/12/08 01:39:20;;;;;;;7.9;5.2;;;;;;;;;;;;;
2022/12/08 01:41:46;;;;;;;6.5;5;;;;;;;;;;;;;
2022/12/08 01:44:11;;;;;;;6.9;5.3;;;;;;;;;;;;;
2022/12/08 01:46:36;;;;;;;7.3;4.9;;;;;;;;;;;;;
2022/12/08 01:49:02;;;;;;;6.7;5.1;;;;;;;;;;;;;
2022/12/08 01:51:28;;;;;;;6.3;5.1;;;;;;;;;;;;;
2022/12/08 01:53:53;;;;;;;7.3;5.2;;;;;;;;;;;;;
2022/12/08 01:56:19;;;;;;;4;3.6;;;;;;;;;;;;;
2022/12/08 01:58:44;;;;;;;4.1;3.1;;;;;;;;;;;;;
2022/12/08 02:01:10;;;;;;;4;3.5;;;;;;;;;;;;;
2022/12/08 02:03:35;;;;;;;3.3;3;;;;;;;;;;;;;
2022/12/08 02:06:01;;;;;;;3.7;3;;;;;;;;;;;;;
2022/12/08 02:08:26;;;;;;;3.3;2.9;;;;;;;;;;;;;
2022/12/08 02:10:53;;;;;;;3.8;3.1;;;;;;;;;;;;;
2022/12/08 02:13:18;;;;;;;3.2;2.8;;;;;;;;;;;;;
2022/12/08 02:15:46;;;;;;;3.9;3.1;;;;;;;;;;;;;
2022/12/08 02:18:12;;;;;;;3.6;3;;;;;;;;;;;;;
2022/12/08 02:20:52;;;;;;;3.2;2.9;;;;;;;;;;;;;
2022/12/08 02:23:18;;;;;;;3.2;2.9;;;;;;;;;;;;;
2022/12/08 02:25:43;;;;;;;3.4;2.8;;;;;;;;;;;;;
2022/12/08 02:28:08;;;;;;;3.4;2.9;;;;;;;;;;;;;
2022/12/08 02:30:36;;;;;;;4.6;3.1;;;;;;;;;;;;;
2022/12/08 02:33:51;;;;;;;3.4;3.1;;;;;;;;;;;;;
2022/12/08 02:36:16;;;;;;;5;3.7;;;;;;;;;;;;;
2022/12/08 02:38:42;;;;;;;5.2;4.1;;;;;;;;;;;;;
2022/12/08 02:41:07;;;;;;;4.6;3.8;;;;;;;;;;;;;
2022/12/08 02:43:32;;;;;;;4.3;3.4;;;;;;;;;;;;;
2022/12/08 02:45:57;;;;;;;4.2;3.3;;;;;;;;;;;;;
2022/12/08 02:48:22;;;;;;;5.1;3.4;;;;;;;;;;;;;
2022/12/08 02:50:47;;;;;;;4;3.3;;;;;;;;;;;;;
2022/12/08 02:53:12;;;;;;;5.3;3.6;;;;;;;;;;;;;
2022/12/08 02:55:38;;;;;;;4.1;3.3;;;;;;;;;;;;;
2022/12/08 02:58:04;;;;;;;5.1;3.5;;;;;;;;;;;;;
2022/12/08 03:00:30;;;;;;;4.2;3.4;;;;;;;;;;;;;
2022/12/08 03:02:55;;;;;;;3.7;3.3;;;;;;;;;;;;;
2022/12/08 03:05:20;;;;;;;4;3.3;;;;;;;;;;;;;
2022/12/08 03:07:46;;;;;;;4.1;3.4;;;;;;;;;;;;;
2022/12/08 03:10:11;;;;;;;3.6;3;;;;;;;;;;;;;
2022/12/08 03:12:36;;;;;;;3.8;2.9;;;;;;;;;;;;;
2022/12/08 03:15:01;;;;;;;3.8;3.1;;;;;;;;;;;;;
2022/12/08 03:17:27;;;;;;;3.5;3.2;;;;;;;;;;;;;
2022/12/08 03:19:52;;;;;;;3.6;3.3;;;;;;;;;;;;;
2022/12/08 03:22:20;;;;;;;3.9;3.5;;;;;;;;;;;;;
2022/12/08 03:24:45;;;;;;;3.9;3.4;;;;;;;;;;;;;
2022/12/08 03:27:10;;;;;;;4.3;3.2;;;;;;;;;;;;;
2022/12/08 03:29:35;;;;;;;4.6;3.6;;;;;;;;;;;;;
2022/12/08 03:32:01;;;;;;;5;3.3;;;;;;;;;;;;;
2022/12/08 03:34:27;;;;;;;4.4;3.4;;;;;;;;;;;;;
2022/12/08 03:36:52;;;;;;;4;3.3;;;;;;;;;;;;;
2022/12/08 03:39:18;;;;;;;4;3.4;;;;;;;;;;;;;
2022/12/08 03:41:43;;;;;;;4.3;3.6;;;;;;;;;;;;;
2022/12/08 03:44:08;;;;;;;5;3.5;;;;;;;;;;;;;
2022/12/08 03:46:33;;;;;;;4.3;3.7;;;;;;;;;;;;;
2022/12/08 03:48:59;;;;;;;3.2;2.9;;;;;;;;;;;;;
2022/12/08 03:51:26;;;;;;;4;3.6;;;;;;;;;;;;;
2022/12/08 03:53:50;;;;;;;4;3.6;;;;;;;;;;;;;
2022/12/08 03:56:15;;;;;;;4;3.5;;;;;;;;;;;;;
2022/12/08 03:58:42;;;;;;;4.9;3.3;;;;;;;;;;;;;
2022/12/08 04:02:31;;;;;;;4.5;3.3;;;;;;;;;;;;;
2022/12/08 04:04:56;;;;;;;4;3.6;;;;;;;;;;;;;
2022/12/08 04:07:21;;;;;;;3.6;3.3;;;;;;;;;;;;;
2022/12/08 04:09:47;;;;;;;3.7;3.2;;;;;;;;;;;;;
2022/12/08 04:12:12;;;;;;;3.6;2.8;;;;;;;;;;;;;
2022/12/08 04:14:39;;;;;;;2.9;2.6;;;;;;;;;;;;;
2022/12/08 04:17:04;;;;;;;4.5;2.5;;;;;;;;;;;;;
2022/12/08 04:19:31;;;;;;;2.6;2.4;;;;;;;;;;;;;
2022/12/08 04:22:03;;;;;;;2.9;2.5;;;;;;;;;;;;;
2022/12/08 04:24:28;;;;;;;3;2.7;;;;;;;;;;;;;
2022/12/08 04:26:54;;;;;;;3;2.7;;;;;;;;;;;;;
2022/12/08 04:29:21;;;;;;;3.3;3;;;;;;;;;;;;;
2022/12/08 04:31:47;;;;;;;4.5;3.5;;;;;;;;;;;;;
2022/12/08 04:34:13;;;;;;;3.6;3.1;;;;;;;;;;;;;
2022/12/08 04:36:38;;;;;;;3.5;3;;;;;;;;;;;;;
2022/12/08 04:39:06;;;;;;;3.5;3;;;;;;;;;;;;;
2022/12/08 04:41:31;;;;;;;3.3;3;;;;;;;;;;;;;
2022/12/08 04:43:57;;;;;;;4.1;3.3;;;;;;;;;;;;;
2022/12/08 04:46:22;;;;;;;3.3;3;;;;;;;;;;;;;
2022/12/08 04:48:48;;;;;;;3.1;2.8;;;;;;;;;;;;;
2022/12/08 04:51:13;;;;;;;3.9;3.1;;;;;;;;;;;;;
2022/12/08 04:53:40;;;;;;;3.2;2.9;;;;;;;;;;;;;
2022/12/08 04:56:05;;;;;;;4.1;3.2;;;;;;;;;;;;;
2022/12/08 04:58:30;;;;;;;3.8;3;;;;;;;;;;;;;
2022/12/08 05:00:56;;;;;;;3.4;3;;;;;;;;;;;;;
2022/12/08 05:03:21;;;;;;;3.6;3.1;;;;;;;;;;;;;
2022/12/08 05:05:47;;;;;;;4.4;3.5;;;;;;;;;;;;;
2022/12/08 05:08:12;;;;;;;5.1;3.8;;;;;;;;;;;;;
2022/12/08 05:10:39;;;;;;;3.8;3.2;;;;;;;;;;;;;
2022/12/08 05:13:04;;;;;;;4.4;3.5;;;;;;;;;;;;;
2022/12/08 05:15:34;;;;;;;4.3;3.8;;;;;;;;;;;;;
2022/12/08 05:18:02;;;;;;;5.2;4.5;;;;;;;;;;;;;
2022/12/08 05:20:27;;;;;;;5.6;4.5;;;;;;;;;;;;;
2022/12/08 05:22:53;;;;;;;4.7;4.2;;;;;;;;;;;;;
2022/12/08 05:25:19;;;;;;;4.6;4;;;;;;;;;;;;;
2022/12/08 05:27:45;;;;;;;4.7;3.8;;;;;;;;;;;;;
2022/12/08 05:30:10;;;;;;;5.2;4.5;;;;;;;;;;;;;
2022/12/08 05:32:38;;;;;;;6.5;4.8;;;;;;;;;;;;;
2022/12/08 05:37:28;;;;;;;6.6;5.8;;;;;;;;;;;;;
2022/12/08 05:39:55;;;;;;;9.2;6.7;;;;;;;;;;;;;
2022/12/08 05:42:19;;;;;;;11.3;8;;;;;;;;;;;;;
2022/12/08 05:44:46;;;;;;;11.3;7.4;;;;;;;;;;;;;
2022/12/08 05:47:11;;;;;;;8.9;5.6;;;;;;;;;;;;;
2022/12/08 05:49:38;;;;;;;7;5.4;;;;;;;;;;;;;
2022/12/08 05:52:03;;;;;;;7.6;5.5;;;;;;;;;;;;;
2022/12/08 05:54:29;;;;;;;7.8;6;;;;;;;;;;;;;
2022/12/08 05:56:53;;;;;;;7.5;5.9;;;;;;;;;;;;;
2022/12/08 05:59:19;;;;;;;8.3;6;;;;;;;;;;;;;
2022/12/08 06:01:44;;;;;;;5.9;5.3;;;;;;;;;;;;;
2022/12/08 06:04:09;;;;;;;9;5.5;;;;;;;;;;;;;
2022/12/08 06:06:35;;;;;;;9.8;6.4;;;;;;;;;;;;;
2022/12/08 06:09:00;;;;;;;6.3;4.9;;;;;;;;;;;;;
2022/12/08 06:11:26;;;;;;;6.6;4.9;;;;;;;;;;;;;
2022/12/08 06:13:52;;;;;;;5.9;4.4;;;;;;;;;;;;;
2022/12/08 06:16:17;;;;;;;7;5.5;;;;;;;;;;;;;
2022/12/08 06:18:42;;;;;;;7.1;5.2;;;;;;;;;;;;;
2022/12/08 06:21:07;;;;;;;6.2;3.8;;;;;;;;;;;;;
2022/12/08 06:23:33;;;;;;;5.8;5.2;;;;;;;;;;;;;
2022/12/08 06:25:59;;;;;;;5.5;4.5;;;;;;;;;;;;;
2022/12/08 06:28:24;;;;;;;6.6;4.7;;;;;;;;;;;;;
2022/12/08 06:31:12;;;;;;;19.9;11.7;;;;;;;;;;;;;
2022/12/08 06:33:39;;;;;;;31.3;17.9;;;;;;;;;;;;;
2022/12/08 06:36:04;;;;;;;21.9;14;;;;;;;;;;;;;
2022/12/08 06:38:31;;;;;;;8.7;6.2;;;;;;;;;;;;;
2022/12/08 06:40:56;;;;;;;8.8;6.8;;;;;;;;;;;;;
2022/12/08 06:43:25;;;;;;;8.3;5.9;;;;;;;;;;;;;
2022/12/08 06:45:50;;;;;;;6.5;4.8;;;;;;;;;;;;;
2022/12/08 06:48:17;;;;;;;5.9;4.5;;;;;;;;;;;;;
2022/12/08 06:50:43;;;;;;;6.3;4.3;;;;;;;;;;;;;
2022/12/08 06:53:12;;;;;;;4;3.6;;;;;;;;;;;;;
2022/12/08 06:55:37;;;;;;;4.7;3.8;;;;;;;;;;;;;
2022/12/08 06:58:02;;;;;;;4;3.5;;;;;;;;;;;;;
2022/12/08 07:00:31;;;;;;;4.8;3.9;;;;;;;;;;;;;
2022/12/08 07:02:56;;;;;;;5.7;4.4;;;;;;;;;;;;;
2022/12/08 07:05:22;;;;;;;6.6;4.6;;;;;;;;;;;;;
2022/12/08 07:07:47;;;;;;;7.7;5.1;;;;;;;;;;;;;
2022/12/08 07:10:14;;;;;;;6.5;4.3;;;;;;;;;;;;;
2022/12/08 07:12:39;;;;;;;5.3;3.9;;;;;;;;;;;;;
2022/12/08 07:15:04;;;;;;;5.9;3.7;;;;;;;;;;;;;
2022/12/08 07:17:29;;;;;;;6.7;4.6;;;;;;;;;;;;;
2022/12/08 07:19:55;;;;;;;4.7;3.8;;;;;;;;;;;;;
2022/12/08 07:22:20;;;;;;;5.1;3.6;;;;;;;;;;;;;
2022/12/08 07:24:46;;;;;;;5.2;3.9;;;;;;;;;;;;;
2022/12/08 07:27:11;;;;;;;4.4;3.5;;;;;;;;;;;;;
2022/12/08 07:29:38;;;;;;;5.1;3.8;;;;;;;;;;;;;
2022/12/08 07:32:03;;;;;;;6.5;4.2;;;;;;;;;;;;;
2022/12/08 07:34:29;;;;;;;6.9;3.8;;;;;;;;;;;;;
2022/12/08 07:36:54;;;;;;;6;3.8;;;;;;;;;;;;;
2022/12/08 07:39:21;;;;;;;5;3.6;;;;;;;;;;;;;
2022/12/08 07:41:46;;;;;;;5.6;3.5;;;;;;;;;;;;;
2022/12/08 07:44:12;;;;;;;5.1;3.8;;;;;;;;;;;;;
2022/12/08 07:46:37;;;;;;;5.8;3.6;;;;;;;;;;;;;
2022/12/08 07:49:02;;;;;;;4.7;3.9;;;;;;;;;;;;;
2022/12/08 07:51:28;;;;;;;5;3.9;;;;;;;;;;;;;
2022/12/08 07:53:53;;;;;;;5.5;3.7;;;;;;;;;;;;;
2022/12/08 07:56:18;;;;;;;4.6;3.8;;;;;;;;;;;;;
2022/12/08 07:58:45;;;;;;;6;4.1;;;;;;;;;;;;;
2022/12/08 08:01:09;;;;;;;5.1;4.1;;;;;;;;;;;;;
2022/12/08 08:03:37;;;;;;;5.5;4.2;;;;;;;;;;;;;
2022/12/08 08:06:02;;;;;;;8;4.5;;;;;;;;;;;;;
2022/12/08 08:08:27;;;;;;;6.4;4.7;;;;;;;;;;;;;
2022/12/08 08:10:52;;;;;;;7.6;4.5;;;;;;;;;;;;;
2022/12/08 08:13:19;;;;;;;4.4;3.3;;;;;;;;;;;;;
2022/12/08 08:15:44;;;;;;;5.8;3.6;;;;;;;;;;;;;
2022/12/08 08:18:10;;;;;;;4.2;3;;;;;;;;;;;;;
2022/12/08 08:20:36;;;;;;;4.5;3;;;;;;;;;;;;;
2022/12/08 08:23:00;;;;;;;2.9;2.4;;;;;;;;;;;;;
2022/12/08 08:25:26;;;;;;;3.1;2.6;;;;;;;;;;;;;
2022/12/08 08:27:53;;;;;;;3.6;2.9;;;;;;;;;;;;;
2022/12/08 08:30:18;;;;;;;3.4;2.9;;;;;;;;;;;;;
2022/12/08 08:32:44;;;;;;;4.4;3.2;;;;;;;;;;;;;
2022/12/08 08:35:09;;;;;;;7;4;;;;;;;;;;;;;
2022/12/08 08:37:35;;;;;;;3.3;2.8;;;;;;;;;;;;;
2022/12/08 08:40:00;;;;;;;5.5;3.5;;;;;;;;;;;;;
2022/12/08 08:42:26;;;;;;;4.6;3.1;;;;;;;;;;;;;
2022/12/08 08:44:51;;;;;;;5.6;4;;;;;;;;;;;;;
2022/12/08 08:47:17;;;;;;;5.2;3.8;;;;;;;;;;;;;
2022/12/08 08:49:42;;;;;;;5;3.1;;;;;;;;;;;;;
2022/12/08 08:52:08;;;;;;;9.8;3.7;;;;;;;;;;;;;
2022/12/08 08:54:33;;;;;;;7.9;4;;;;;;;;;;;;;
2022/12/08 08:57:01;;;;;;;7.8;3.8;;;;;;;;;;;;;
2022/12/08 08:59:26;;;;;;;6.9;4.1;;;;;;;;;;;;;
2022/12/08 09:01:51;;;;;;;6.1;3.8;;;;;;;;;;;;;
2022/12/08 09:04:16;;;;;;;10.3;3.9;;;;;;;;;;;;;
2022/12/08 09:06:44;;;;;;;12.9;4.5;;;;;;;;;;;;;
2022/12/08 09:09:07;;;;;;;6.3;3.8;;;;;;;;;;;;;
2022/12/08 09:11:33;;;;;;;5.1;3.8;;;;;;;;;;;;;
2022/12/08 09:13:59;;;;;;;6.9;4.3;;;;;;;;;;;;;
2022/12/08 09:16:25;;;;;;;11.2;5.2;;;;;;;;;;;;;
2022/12/08 09:18:50;;;;;;;13.4;5.2;;;;;;;;;;;;;
2022/12/08 09:21:19;;;;;;;7.2;3.8;;;;;;;;;;;;;
2022/12/08 09:23:41;;;;;;;10;4.4;;;;;;;;;;;;;
2022/12/08 09:26:09;;;;;;;7.3;3.7;;;;;;;;;;;;;
2022/12/08 09:28:34;;;;;;;10.3;3.7;;;;;;;;;;;;;
2022/12/08 09:30:59;;;;;;;7.6;3.7;;;;;;;;;;;;;
2022/12/08 09:33:24;;;;;;;5.4;3.6;;;;;;;;;;;;;
2022/12/08 09:35:50;;;;;;;10.4;4.3;;;;;;;;;;;;;
2022/12/08 09:38:15;;;;;;;7.7;4.2;;;;;;;;;;;;;
2022/12/08 09:41:02;;;;;;;6.1;3;;;;;;;;;;;;;
2022/12/08 09:43:27;;;;;;;9;3.1;;;;;;;;;;;;;
2022/12/08 09:45:58;;;;;;;6;2.7;;;;;;;;;;;;;
2022/12/08 09:48:26;;;;;;;12.3;3.4;;;;;;;;;;;;;
2022/12/08 09:50:52;;;;;;;8.1;3.2;;;;;;;;;;;;;
2022/12/08 09:53:17;;;;;;;9;3.3;;;;;;;;;;;;;
2022/12/08 09:55:42;;;;;;;8.8;3.1;;;;;;;;;;;;;
2022/12/08 09:58:07;;;;;;;6.7;3.5;;;;;;;;;;;;;
2022/12/08 10:00:33;;;;;;;7.6;3.5;;;;;;;;;;;;;
2022/12/08 10:02:58;;;;;;;7.2;3.7;;;;;;;;;;;;;
2022/12/08 10:05:24;;;;;;;9.8;5.1;;;;;;;;;;;;;
2022/12/08 10:07:49;;;;;;;16;7.6;;;;;;;;;;;;;
2022/12/08 10:10:15;;;;;;;14.8;6;;;;;;;;;;;;;
2022/12/08 10:12:41;;;;;;;8.6;5.1;;;;;;;;;;;;;
2022/12/08 10:15:06;;;;;;;4.2;3.3;;;;;;;;;;;;;
2022/12/08 10:17:33;;;;;;;7;3.2;;;;;;;;;;;;;
2022/12/08 10:19:58;;;;;;;6.1;3.5;;;;;;;;;;;;;
2022/12/08 10:22:23;;;;;;;14.4;5;;;;;;;;;;;;;
2022/12/08 10:24:51;;;;;;;7.2;3.5;;;;;;;;;;;;;
2022/12/08 10:27:16;;;;;;;6.8;3.3;;;;;;;;;;;;;
2022/12/08 10:29:41;;;;;;;4.7;3;;;;;;;;;;;;;
2022/12/08 10:32:06;;;;;;;6.5;3.9;;;;;;;;;;;;;
2022/12/08 10:34:33;;;;;;;5.3;3.6;;;;;;;;;;;;;
2022/12/08 10:36:59;;;;;;;4.5;3.3;;;;;;;;;;;;;
2022/12/08 10:39:23;;;;;;;5.8;3.1;;;;;;;;;;;;;
2022/12/08 10:41:48;;;;;;;9.1;5.1;;;;;;;;;;;;;
2022/12/08 10:44:13;;;;;;;5.2;3.2;;;;;;;;;;;;;
2022/12/08 10:46:38;;;;;;;5.6;3.3;;;;;;;;;;;;;
2022/12/08 10:49:04;;;;;;;5.6;2.8;;;;;;;;;;;;;
2022/12/08 10:51:29;;;;;;;7.7;3.1;;;;;;;;;;;;;
2022/12/08 10:53:54;;;;;;;4.8;2.8;;;;;;;;;;;;;
2022/12/08 10:56:21;;;;;;;3.9;2.8;;;;;;;;;;;;;
2022/12/08 10:58:46;;;;;;;5.1;2.8;;;;;;;;;;;;;
2022/12/08 11:01:14;;;;;;;7.1;3.5;;;;;;;;;;;;;
2022/12/08 11:03:40;;;;;;;4.8;3.3;;;;;;;;;;;;;
2022/12/08 11:06:05;;;;;;;6.2;3;;;;;;;;;;;;;
2022/12/08 11:08:31;;;;;;;8.8;3.7;;;;;;;;;;;;;
2022/12/08 11:10:58;;;;;;;3.9;2.7;;;;;;;;;;;;;
2022/12/08 11:13:24;;;;;;;4.1;2.9;;;;;;;;;;;;;
2022/12/08 11:15:48;;;;;;;4.8;2.7;;;;;;;;;;;;;
2022/12/08 11:18:14;;;;;;;5.6;3.3;;;;;;;;;;;;;
2022/12/08 11:20:40;;;;;;;6.5;2.9;;;;;;;;;;;;;
2022/12/08 11:23:05;;;;;;;3.4;2.4;;;;;;;;;;;;;
2022/12/08 11:25:30;;;;;;;4.1;2.7;;;;;;;;;;;;;
2022/12/08 11:27:56;;;;;;;6.9;2.7;;;;;;;;;;;;;
2022/12/08 11:30:22;;;;;;;3;2.5;;;;;;;;;;;;;
2022/12/08 11:32:49;;;;;;;5.1;2.9;;;;;;;;;;;;;
2022/12/08 11:35:14;;;;;;;9.6;3;;;;;;;;;;;;;
2022/12/08 11:37:40;;;;;;;5;2.6;;;;;;;;;;;;;
2022/12/08 11:40:05;;;;;;;6.4;2.9;;;;;;;;;;;;;
2022/12/08 11:42:31;;;;;;;4.4;2.5;;;;;;;;;;;;;
2022/12/08 11:44:56;;;;;;;6.7;3;;;;;;;;;;;;;
2022/12/08 11:47:23;;;;;;;6.2;3.2;;;;;;;;;;;;;
2022/12/08 11:49:48;;;;;;;3.9;2.8;;;;;;;;;;;;;
2022/12/08 11:52:13;;;;;;;4.5;2.9;;;;;;;;;;;;;
2022/12/08 11:54:39;;;;;;;3.7;2.6;;;;;;;;;;;;;
2022/12/08 11:57:05;;;;;;;4.6;3;;;;;;;;;;;;;
2022/12/08 11:59:31;;;;;;;4.6;3;;;;;;;;;;;;;
2022/12/08 12:01:56;;;;;;;5.7;2.8;;;;;;;;;;;;;
2022/12/08 12:04:21;;;;;;;8.4;3.2;;;;;;;;;;;;;
2022/12/08 12:06:46;;;;;;;4.2;3;;;;;;;;;;;;;
2022/12/08 12:09:11;;;;;;;4;3.1;;;;;;;;;;;;;
2022/12/08 12:14:01;;;;;;;5.8;3.2;;;;;;;;;;;;;
2022/12/08 12:16:27;;;;;;;3.4;2.5;;;;;;;;;;;;;
2022/12/08 12:18:53;;;;;;;5.7;2.5;;;;;;;;;;;;;
2022/12/08 12:21:18;;;;;;;4.4;3.4;;;;;;;;;;;;;
2022/12/08 12:23:44;;;;;;;4.6;3;;;;;;;;;;;;;
2022/12/08 12:26:09;;;;;;;3.1;2.7;;;;;;;;;;;;;
2022/12/08 12:28:35;;;;;;;4.5;3;;;;;;;;;;;;;
2022/12/08 12:31:00;;;;;;;4.8;2.6;;;;;;;;;;;;;
2022/12/08 12:33:27;;;;;;;8.9;3.5;;;;;;;;;;;;;
2022/12/08 12:35:52;;;;;;;3.9;2.9;;;;;;;;;;;;;
2022/12/08 12:39:02;;;;;;;4.8;3.3;;;;;;;;;;;;;
2022/12/08 12:40:44;;;;;;;4;3.3;;;;;;;;;;;;;
2022/12/08 12:43:09;;;;;;;3.3;2.9;;;;;;;;;;;;;
2022/12/08 12:45:34;;;;;;;4.8;3.1;;;;;;;;;;;;;
2022/12/08 12:47:59;;;;;;;4.7;2.8;;;;;;;;;;;;;
2022/12/08 12:50:26;;;;;;;4.5;3.1;;;;;;;;;;;;;
2022/12/08 12:52:52;;;;;;;3.9;2.7;;;;;;;;;;;;;
2022/12/08 12:55:19;;;;;;;4.2;2.9;;;;;;;;;;;;;
2022/12/08 12:57:44;;;;;;;3.8;2.6;;;;;;;;;;;;;
2022/12/08 13:00:13;;;;;;;5.2;3.1;;;;;;;;;;;;;
2022/12/08 13:02:38;;;;;;;3.3;2.7;;;;;;;;;;;;;
2022/12/08 13:05:05;;;;;;;3.3;2.4;;;;;;;;;;;;;
2022/12/08 13:07:30;;;;;;;3.9;2.6;;;;;;;;;;;;;
2022/12/08 13:09:55;;;;;;;4.8;3.1;;;;;;;;;;;;;
2022/12/08 13:12:21;;;;;;;4.7;2.5;;;;;;;;;;;;;
2022/12/08 13:14:47;;;;;;;12.4;3.9;;;;;;;;;;;;;
2022/12/08 13:17:12;;;;;;;6;2.7;;;;;;;;;;;;;
2022/12/08 13:19:36;;;;;;;6;2.8;;;;;;;;;;;;;
2022/12/08 13:22:04;;;;;;;4;2.5;;;;;;;;;;;;;
2022/12/08 13:24:31;;;;;;;7.8;2.2;;;;;;;;;;;;;
2022/12/08 13:26:56;;;;;;;3.3;1.9;;;;;;;;;;;;;
2022/12/08 13:29:22;;;;;;;3.4;1.9;;;;;;;;;;;;;
2022/12/08 13:31:47;;;;;;;5.7;2;;;;;;;;;;;;;
2022/12/08 13:34:12;;;;;;;3.1;1.8;;;;;;;;;;;;;
2022/12/08 13:36:38;;;;;;;2.8;1.9;;;;;;;;;;;;;
2022/12/08 13:39:02;;;;;;;4.5;2;;;;;;;;;;;;;
2022/12/08 13:41:27;;;;;;;3.1;1.8;;;;;;;;;;;;;
2022/12/08 13:43:53;;;;;;;5.8;2.4;;;;;;;;;;;;;
2022/12/08 13:46:18;;;;;;;3.9;2.1;;;;;;;;;;;;;
2022/12/08 13:48:44;;;;;;;3.9;2.1;;;;;;;;;;;;;
2022/12/08 13:51:09;;;;;;;8.1;2.2;;;;;;;;;;;;;
2022/12/08 13:53:38;;;;;;;5.7;2.2;;;;;;;;;;;;;
2022/12/08 13:56:02;;;;;;;5.2;2.9;;;;;;;;;;;;;
2022/12/08 13:58:28;;;;;;;5.2;3.1;;;;;;;;;;;;;
2022/12/08 14:00:53;;;;;;;5.2;2.8;;;;;;;;;;;;;
2022/12/08 14:03:21;;;;;;;5.4;2.4;;;;;;;;;;;;;
2022/12/08 14:05:47;;;;;;;5.2;2.6;;;;;;;;;;;;;
2022/12/08 14:08:16;;;;;;;7.9;3.4;;;;;;;;;;;;;
2022/12/08 14:10:41;;;;;;;5.8;2.7;;;;;;;;;;;;;
2022/12/08 14:13:06;;;;;;;4.2;2.9;;;;;;;;;;;;;
2022/12/08 14:15:31;;;;;;;7.1;3.3;;;;;;;;;;;;;
2022/12/08 14:17:59;;;;;;;8.2;3.7;;;;;;;;;;;;;
2022/12/08 14:20:25;;;;;;;8.9;3.6;;;;;;;;;;;;;
2022/12/08 14:22:51;;;;;;;9.7;4;;;;;;;;;;;;;
2022/12/08 14:25:16;;;;;;;11.3;4.8;;;;;;;;;;;;;
2022/12/08 14:27:42;;;;;;;6.1;3.4;;;;;;;;;;;;;
2022/12/08 14:30:07;;;;;;;7.6;3.7;;;;;;;;;;;;;
2022/12/08 14:32:33;;;;;;;6.3;3.5;;;;;;;;;;;;;
2022/12/08 14:34:58;;;;;;;9.8;4.2;;;;;;;;;;;;;
2022/12/08 14:37:23;;;;;;;9;3.7;;;;;;;;;;;;;
2022/12/08 14:39:48;;;;;;;6.9;3.7;;;;;;;;;;;;;
2022/12/08 14:42:13;;;;;;;7.6;4.8;;;;;;;;;;;;;
2022/12/08 14:44:40;;;;;;;8.4;4.8;;;;;;;;;;;;;
2022/12/08 14:47:04;;;;;;;7.4;5.4;;;;;;;;;;;;;
2022/12/08 14:49:33;;;;;;;7.5;6;;;;;;;;;;;;;
2022/12/08 14:51:58;;;;;;;15;7.3;;;;;;;;;;;;;
2022/12/08 14:54:23;;;;;;;15.8;7.4;;;;;;;;;;;;;
2022/12/08 14:56:50;;;;;;;13.2;7;;;;;;;;;;;;;
2022/12/08 14:59:13;;;;;;;14.6;7.5;;;;;;;;;;;;;
2022/12/08 15:01:39;;;;;;;12;6.6;;;;;;;;;;;;;
2022/12/08 15:04:04;;;;;;;9.7;7.1;;;;;;;;;;;;;
2022/12/08 15:06:30;;;;;;;10.7;6.3;;;;;;;;;;;;;
2022/12/08 15:08:57;;;;;;;8.8;5.2;;;;;;;;;;;;;
2022/12/08 15:11:22;;;;;;;9.3;5.5;;;;;;;;;;;;;
2022/12/08 15:13:47;;;;;;;12.2;5.3;;;;;;;;;;;;;
2022/12/08 15:16:13;;;;;;;13.2;5.5;;;;;;;;;;;;;
2022/12/08 15:18:38;;;;;;;10.5;5.7;;;;;;;;;;;;;
2022/12/08 15:21:04;;;;;;;10.5;5.3;;;;;;;;;;;;;
2022/12/08 15:23:30;;;;;;;12.3;5.6;;;;;;;;;;;;;
2022/12/08 15:25:55;;;;;;;9.2;6;;;;;;;;;;;;;
2022/12/08 15:28:20;;;;;;;12.6;7;;;;;;;;;;;;;
2022/12/08 15:30:48;;;;;;;12.3;6.4;;;;;;;;;;;;;
2022/12/08 15:33:13;;;;;;;10.6;7.4;;;;;;;;;;;;;
2022/12/08 15:35:39;;;;;;;12.6;7.3;;;;;;;;;;;;;
2022/12/08 15:38:04;;;;;;;13.1;8.1;;;;;;;;;;;;;
2022/12/08 15:40:29;;;;;;;14.1;8.6;;;;;;;;;;;;;
2022/12/08 15:42:54;;;;;;;12.8;8.2;;;;;;;;;;;;;
2022/12/08 15:45:22;;;;;;;15.1;9.7;;;;;;;;;;;;;
2022/12/08 15:47:47;;;;;;;16.1;10.3;;;;;;;;;;;;;
2022/12/08 15:50:13;;;;;;;14.9;9.7;;;;;;;;;;;;;
2022/12/08 15:52:38;;;;;;;19.6;10.4;;;;;;;;;;;;;
2022/12/08 15:55:04;;;;;;;13.9;9.7;;;;;;;;;;;;;
2022/12/08 15:57:29;;;;;;;12.5;9.1;;;;;;;;;;;;;
2022/12/08 15:59:54;;;;;;;15.9;10.1;;;;;;;;;;;;;
2022/12/08 16:02:19;;;;;;;17.1;9.8;;;;;;;;;;;;;
2022/12/08 16:04:46;;;;;;;19.6;12;;;;;;;;;;;;;
2022/12/08 16:07:11;;;;;;;16.5;11.7;;;;;;;;;;;;;
2022/12/08 16:09:38;;;;;;;18.2;10.5;;;;;;;;;;;;;
2022/12/08 16:14:28;;;;;;;15.3;10;;;;;;;;;;;;;
2022/12/08 16:16:53;;;;;;;19.8;11.9;;;;;;;;;;;;;
2022/12/08 16:19:19;;;;;;;23.6;14.7;;;;;;;;;;;;;
2022/12/08 16:21:44;;;;;;;17.3;11.7;;;;;;;;;;;;;
2022/12/08 16:24:09;;;;;;;18.4;13.4;;;;;;;;;;;;;
2022/12/08 16:26:34;;;;;;;17.4;12.2;;;;;;;;;;;;;
2022/12/08 16:29:00;;;;;;;13.8;9.6;;;;;;;;;;;;;
2022/12/08 16:31:25;;;;;;;13.3;8.6;;;;;;;;;;;;;
2022/12/08 16:33:52;;;;;;;12.7;8.2;;;;;;;;;;;;;
2022/12/08 16:36:17;;;;;;;15.8;11.4;;;;;;;;;;;;;
2022/12/08 16:38:42;;;;;;;15.2;10.5;;;;;;;;;;;;;
2022/12/08 16:43:32;;;;;;;8.5;5.9;;;;;;;;;;;;;
2022/12/08 16:46:00;;;;;;;11;7.4;;;;;;;;;;;;;
2022/12/08 16:48:25;;;;;;;10;7.8;;;;;;;;;;;;;
2022/12/08 16:50:52;;;;;;;9.1;6.4;;;;;;;;;;;;;
2022/12/08 16:53:16;;;;;;;10.2;6.8;;;;;;;;;;;;;
2022/12/08 16:55:42;;;;;;;11;7.2;;;;;;;;;;;;;
2022/12/08 16:58:07;;;;;;;16.3;11.8;;;;;;;;;;;;;
2022/12/08 17:00:36;;;;;;;22.6;15.8;;;;;;;;;;;;;
2022/12/08 17:03:01;;;;;;;23.1;15.5;;;;;;;;;;;;;
2022/12/08 17:05:30;;;;;;;22.8;16;;;;;;;;;;;;;
2022/12/08 17:07:59;;;;;;;20.7;14.8;;;;;;;;;;;;;
2022/12/08 17:10:24;;;;;;;20.4;13.5;;;;;;;;;;;;;
2022/12/08 17:12:49;;;;;;;16.3;11.8;;;;;;;;;;;;;
2022/12/08 17:15:17;;;;;;;19.5;15;;;;;;;;;;;;;
2022/12/08 17:17:42;;;;;;;17.5;12.9;;;;;;;;;;;;;
2022/12/08 17:20:07;;;;;;;21.1;13.8;;;;;;;;;;;;;
2022/12/08 17:22:36;;;;;;;24.3;15.7;;;;;;;;;;;;;
2022/12/08 17:25:01;;;;;;;24.9;17.1;;;;;;;;;;;;;
2022/12/08 17:27:30;;;;;;;21.2;14.8;;;;;;;;;;;;;
2022/12/08 17:29:57;;;;;;;14.6;10.7;;;;;;;;;;;;;
2022/12/08 17:32:22;;;;;;;15;10.5;;;;;;;;;;;;;
2022/12/08 17:34:49;;;;;;;16.4;11.1;;;;;;;;;;;;;
2022/12/08 17:37:16;;;;;;;19.2;12.6;;;;;;;;;;;;;
2022/12/08 17:39:41;;;;;;;18.9;12.4;;;;;;;;;;;;;
2022/12/08 17:42:08;;;;;;;20.7;14.4;;;;;;;;;;;;;
2022/12/08 17:44:34;;;;;;;23;15.4;;;;;;;;;;;;;
2022/12/08 17:46:59;;;;;;;20.4;14.2;;;;;;;;;;;;;
2022/12/08 17:49:25;;;;;;;22.6;15.5;;;;;;;;;;;;;
2022/12/08 17:51:51;;;;;;;20.2;11.7;;;;;;;;;;;;;
2022/12/08 17:54:16;;;;;;;17.3;11.5;;;;;;;;;;;;;
2022/12/08 17:56:42;;;;;;;19.8;13;;;;;;;;;;;;;
2022/12/08 17:59:06;;;;;;;24.8;15.4;;;;;;;;;;;;;
2022/12/08 18:01:33;;;;;;;26.6;16.5;;;;;;;;;;;;;
2022/12/08 18:03:58;;;;;;;23.9;15.4;;;;;;;;;;;;;
2022/12/08 18:06:23;;;;;;;22;15.4;;;;;;;;;;;;;
2022/12/08 18:08:49;;;;;;;23.1;15.6;;;;;;;;;;;;;
2022/12/08 18:11:14;;;;;;;25.8;17.8;;;;;;;;;;;;;
2022/12/08 18:13:41;;;;;;;28.8;20.8;;;;;;;;;;;;;
2022/12/08 18:16:06;;;;;;;27.2;20.8;;;;;;;;;;;;;
2022/12/08 18:18:32;;;;;;;29.7;20;;;;;;;;;;;;;
2022/12/08 18:20:57;;;;;;;25.8;18.1;;;;;;;;;;;;;
2022/12/08 18:23:22;;;;;;;25.3;17.2;;;;;;;;;;;;;
2022/12/08 18:25:48;;;;;;;22;15.6;;;;;;;;;;;;;
2022/12/08 18:28:14;;;;;;;21.5;14.6;;;;;;;;;;;;;
2022/12/08 18:30:39;;;;;;;21;14.5;;;;;;;;;;;;;
2022/12/08 18:33:05;;;;;;;39.2;26.2;;;;;;;;;;;;;
2022/12/08 18:35:30;;;;;;;87.6;54.6;;;;;;;;;;;;;
2022/12/08 18:37:58;;;;;;;12.5;9;;;;;;;;;;;;;
2022/12/08 18:40:23;;;;;;;84.6;58.4;;;;;;;;;;;;;
2022/12/08 18:42:48;;;;;;;38.2;30.1;;;;;;;;;;;;;
2022/12/08 18:45:13;;;;;;;42.1;29.4;;;;;;;;;;;;;
2022/12/08 18:47:40;;;;;;;29.9;20.5;;;;;;;;;;;;;
2022/12/08 18:50:05;;;;;;;38.8;25.1;;;;;;;;;;;;;
2022/12/08 18:52:33;;;;;;;42.3;31.6;;;;;;;;;;;;;
2022/12/08 18:54:58;;;;;;;24.5;17.9;;;;;;;;;;;;;
2022/12/08 18:57:24;;;;;;;25.3;17.3;;;;;;;;;;;;;
2022/12/08 18:59:48;;;;;;;36.7;24.7;;;;;;;;;;;;;
2022/12/08 19:02:17;;;;;;;29.4;19.6;;;;;;;;;;;;;
2022/12/08 19:04:42;;;;;;;33.8;22.7;;;;;;;;;;;;;
2022/12/08 19:07:07;;;;;;;31.6;18.8;;;;;;;;;;;;;
2022/12/08 19:09:32;;;;;;;31.8;19.9;;;;;;;;;;;;;
2022/12/08 19:11:58;;;;;;;32.1;20.9;;;;;;;;;;;;;
2022/12/08 19:14:23;;;;;;;32.5;21.7;;;;;;;;;;;;;
2022/12/08 19:16:50;;;;;;;29.2;19.9;;;;;;;;;;;;;
2022/12/08 19:19:15;;;;;;;28.9;18.7;;;;;;;;;;;;;
2022/12/08 19:21:40;;;;;;;22.4;14.6;;;;;;;;;;;;;
2022/12/08 19:24:06;;;;;;;20.6;13.4;;;;;;;;;;;;;
2022/12/08 19:26:31;;;;;;;16.8;11.2;;;;;;;;;;;;;
2022/12/08 19:28:57;;;;;;;24.8;16.1;;;;;;;;;;;;;
2022/12/08 19:31:22;;;;;;;23.7;15.6;;;;;;;;;;;;;
2022/12/08 19:33:48;;;;;;;21.5;13.8;;;;;;;;;;;;;
2022/12/08 19:36:14;;;;;;;20.1;12.4;;;;;;;;;;;;;
2022/12/08 19:44:53;;;;;;;25.2;15.5;;;;;;;;;;;;;
2022/12/08 19:45:58;;;;;;;28.5;16.8;;;;;;;;;;;;;
2022/12/08 19:48:23;;;;;;;30.1;17.7;;;;;;;;;;;;;
2022/12/08 19:50:49;;;;;;;33.3;19.6;;;;;;;;;;;;;
2022/12/08 19:53:14;;;;;;;32.7;19.7;;;;;;;;;;;;;
2022/12/08 19:55:40;;;;;;;32.9;20;;;;;;;;;;;;;
2022/12/08 19:58:08;;;;;;;26.7;16.9;;;;;;;;;;;;;
2022/12/08 20:00:30;;;;;;;32.9;23.1;;;;;;;;;;;;;
2022/12/08 20:02:58;;;;;;;33.2;22.5;;;;;;;;;;;;;
2022/12/08 20:05:23;;;;;;;27.6;19.2;;;;;;;;;;;;;
2022/12/08 20:07:48;;;;;;;26.9;17.9;;;;;;;;;;;;;
2022/12/08 20:10:13;;;;;;;25.4;17.2;;;;;;;;;;;;;
2022/12/08 20:12:40;;;;;;;23.1;15.5;;;;;;;;;;;;;
2022/12/08 20:15:05;;;;;;;23.6;15.9;;;;;;;;;;;;;
2022/12/08 20:17:47;;;;;;;20;14.5;;;;;;;;;;;;;
2022/12/08 20:20:13;;;;;;;26.9;17.4;;;;;;;;;;;;;
2022/12/08 20:22:38;;;;;;;31.5;19.4;;;;;;;;;;;;;
2022/12/08 20:25:05;;;;;;;23.2;15.4;;;;;;;;;;;;;
2022/12/08 20:27:30;;;;;;;29.8;18.3;;;;;;;;;;;;;
2022/12/08 20:29:56;;;;;;;28.4;18.5;;;;;;;;;;;;;
2022/12/08 20:32:22;;;;;;;22.9;13.9;;;;;;;;;;;;;
2022/12/08 20:34:49;;;;;;;17.9;12;;;;;;;;;;;;;
2022/12/08 20:37:14;;;;;;;17.8;12.1;;;;;;;;;;;;;
2022/12/08 20:39:40;;;;;;;14.6;10.9;;;;;;;;;;;;;
2022/12/08 20:42:06;;;;;;;14;10.3;;;;;;;;;;;;;
2022/12/08 20:44:31;;;;;;;16.8;11.2;;;;;;;;;;;;;
2022/12/08 20:46:56;;;;;;;25.1;15.2;;;;;;;;;;;;;
2022/12/08 20:49:21;;;;;;;19.4;12;;;;;;;;;;;;;